createdAt,value
2022-09-13T00:01:26.237Z,6.20
2022-09-13T00:03:55.153Z,6.77
2022-09-13T00:06:23.822Z,6.50
2022-09-13T00:08:54.052Z,6.50
2022-09-13T00:11:25.565Z,6.00
2022-09-13T00:13:55.171Z,6.60
2022-09-13T00:16:26.913Z,6.77
2022-09-13T00:18:55.774Z,6.13
2022-09-13T00:21:25.586Z,6.33
2022-09-13T00:23:56.113Z,6.60
2022-09-13T00:26:27.339Z,6.30
2022-09-13T00:28:57.517Z,6.33
2022-09-13T00:31:29.047Z,6.70
2022-09-13T00:33:59.553Z,6.93
2022-09-13T00:36:28.047Z,6.27
2022-09-13T00:38:56.521Z,6.73
2022-09-13T00:41:24.883Z,7.00
2022-09-13T00:43:54.940Z,6.57
2022-09-13T00:46:32.576Z,6.20
2022-09-13T00:49:07.347Z,6.33
2022-09-13T00:51:35.992Z,6.37
2022-09-13T00:54:07.180Z,6.10
2022-09-13T00:56:39.961Z,5.97
2022-09-13T00:59:12.227Z,6.13
2022-09-13T01:01:47.204Z,5.83
2022-09-13T01:04:16.116Z,5.80
2022-09-13T01:06:45.197Z,5.87
2022-09-13T01:09:14.342Z,6.47
2022-09-13T01:11:49.233Z,5.70
2022-09-13T01:14:20.096Z,5.70
2022-09-13T01:16:50.804Z,6.40
2022-09-13T01:19:19.316Z,6.27
2022-09-13T01:22:29.871Z,6.30
2022-09-13T01:25:40.404Z,6.00
2022-09-13T01:28:29.643Z,5.37
2022-09-13T01:31:03.796Z,5.93
2022-09-13T01:33:58.891Z,6.03
2022-09-13T01:36:50.751Z,5.73
2022-09-13T01:39:30.105Z,6.13
2022-09-13T01:42:09.277Z,6.00
2022-09-13T01:44:55.934Z,6.27
2022-09-13T01:47:30.802Z,5.03
2022-09-13T01:50:13.084Z,5.73
2022-09-13T01:52:49.629Z,5.80
2022-09-13T01:55:28.281Z,5.60
2022-09-13T01:58:04.050Z,5.40
2022-09-13T02:00:38.073Z,5.53
2022-09-13T02:03:12.172Z,5.63
2022-09-13T02:05:46.813Z,5.60
2022-09-13T02:08:19.290Z,5.83
2022-09-13T02:10:50.878Z,5.83
2022-09-13T02:13:24.785Z,5.57
2022-09-13T02:15:57.454Z,5.47
2022-09-13T02:18:32.128Z,5.57
2022-09-13T02:21:05.657Z,5.43
2022-09-13T02:23:39.134Z,5.30
2022-09-13T02:26:10.637Z,5.63
2022-09-13T02:28:44.077Z,5.70
2022-09-13T02:31:14.854Z,5.67
2022-09-13T02:33:50.919Z,6.33
2022-09-13T02:36:24.051Z,5.40
2022-09-13T02:38:56.619Z,5.80
2022-09-13T02:41:31.699Z,5.53
2022-09-13T02:44:07.604Z,5.57
2022-09-13T02:46:53.987Z,5.53
2022-09-13T02:49:34.929Z,5.30
2022-09-13T02:52:11.676Z,5.80
2022-09-13T02:54:43.975Z,5.83
2022-09-13T02:57:18.476Z,5.80
2022-09-13T02:59:48.399Z,5.77
2022-09-13T03:02:20.460Z,5.77
2022-09-13T03:04:52.505Z,6.50
2022-09-13T03:07:21.304Z,6.00
2022-09-13T03:09:53.502Z,5.67
2022-09-13T03:12:43.367Z,5.93
2022-09-13T03:15:18.310Z,6.07
2022-09-13T03:17:57.106Z,6.30
2022-09-13T03:20:38.511Z,6.00
2022-09-13T03:23:27.754Z,6.23
2022-09-13T03:26:21.568Z,6.17
2022-09-13T03:29:08.434Z,6.20
2022-09-13T03:31:47.191Z,6.20
2022-09-13T03:34:25.611Z,6.20
2022-09-13T03:36:58.322Z,6.60
2022-09-13T03:39:37.910Z,6.30
2022-09-13T03:42:13.918Z,6.17
2022-09-13T03:44:44.695Z,6.40
2022-09-13T03:47:14.250Z,6.97
2022-09-13T03:49:43.230Z,6.50
2022-09-13T03:52:14.565Z,6.63
2022-09-13T03:54:42.937Z,6.33
2022-09-13T03:57:14.195Z,6.57
2022-09-13T03:59:47.136Z,6.30
2022-09-13T04:02:17.051Z,6.37
2022-09-13T04:04:47.249Z,6.23
2022-09-13T04:07:18.932Z,6.43
2022-09-13T04:09:49.077Z,6.60
2022-09-13T04:12:19.302Z,6.90
2022-09-13T04:14:47.827Z,6.70
2022-09-13T04:17:17.469Z,7.13
2022-09-13T04:19:47.292Z,7.00
2022-09-13T04:22:17.567Z,6.60
2022-09-13T04:24:46.268Z,7.10
2022-09-13T04:27:15.041Z,6.30
2022-09-13T04:29:43.355Z,6.40
2022-09-13T04:32:12.040Z,6.50
2022-09-13T04:34:40.768Z,6.53
2022-09-13T04:37:09.905Z,6.27
2022-09-13T04:39:39.753Z,5.93
2022-09-13T04:42:08.880Z,5.83
2022-09-13T04:44:37.356Z,6.20
2022-09-13T04:47:08.206Z,6.10
2022-09-13T04:49:36.907Z,6.10
2022-09-13T04:52:05.376Z,6.60
2022-09-13T04:54:33.789Z,5.90
2022-09-13T04:57:04.324Z,6.37
2022-09-13T04:59:33.135Z,6.23
2022-09-13T05:02:01.801Z,6.60
2022-09-13T05:04:30.424Z,6.40
2022-09-13T05:06:59.210Z,6.37
2022-09-13T05:09:30.043Z,6.47
2022-09-13T05:11:58.420Z,6.60
2022-09-13T05:14:28.318Z,6.37
2022-09-13T05:16:56.756Z,6.23
2022-09-13T05:19:25.229Z,6.77
2022-09-13T05:21:53.805Z,6.27
2022-09-13T05:24:22.648Z,6.50
2022-09-13T05:26:51.076Z,6.40
2022-09-13T05:29:22.672Z,6.03
2022-09-13T05:31:52.516Z,5.70
2022-09-13T05:34:22.992Z,5.80
2022-09-13T05:36:54.334Z,5.83
2022-09-13T05:39:34.119Z,5.80
2022-09-13T05:42:12.300Z,5.80
2022-09-13T05:44:41.063Z,6.47
2022-09-13T05:47:11.016Z,6.63
2022-09-13T05:50:01.900Z,5.97
2022-09-13T05:52:28.158Z,7.07
2022-09-13T05:54:58.939Z,7.30
2022-09-13T05:57:27.667Z,7.13
2022-09-13T05:59:57.218Z,7.17
2022-09-13T06:02:27.316Z,7.27
2022-09-13T06:04:55.777Z,7.73
2022-09-13T06:07:24.226Z,6.80
2022-09-13T06:09:53.552Z,7.33
2022-09-13T06:12:22.039Z,6.77
2022-09-13T06:14:50.690Z,7.07
2022-09-13T06:17:19.253Z,6.80
2022-09-13T06:19:49.434Z,7.27
2022-09-13T06:22:17.984Z,6.90
2022-09-13T06:24:46.773Z,7.17
2022-09-13T06:27:15.182Z,7.57
2022-09-13T06:29:43.611Z,8.00
2022-09-13T06:32:12.076Z,6.80
2022-09-13T06:34:40.972Z,7.83
2022-09-13T06:37:11.319Z,7.93
2022-09-13T06:39:39.906Z,7.03
2022-09-13T06:42:08.986Z,6.90
2022-09-13T06:44:37.826Z,7.20
2022-09-13T06:47:06.601Z,6.40
2022-09-13T06:49:35.263Z,6.17
2022-09-13T06:52:04.146Z,6.40
2022-09-13T06:54:35.546Z,6.23
2022-09-13T06:57:04.548Z,6.30
2022-09-13T06:59:35.100Z,5.70
2022-09-13T07:02:03.749Z,6.20
2022-09-13T07:04:32.901Z,5.73
2022-09-13T07:07:01.834Z,5.90
2022-09-13T07:09:30.477Z,6.40
2022-09-13T07:12:00.799Z,6.30
2022-09-13T07:14:30.922Z,6.60
2022-09-13T07:17:00.611Z,5.63
2022-09-13T07:19:31.601Z,5.67
2022-09-13T07:22:00.876Z,6.63
2022-09-13T07:24:29.385Z,6.03
2022-09-13T07:27:05.949Z,6.47
2022-09-13T07:29:43.819Z,6.70
2022-09-13T07:32:13.060Z,6.13
2022-09-13T07:34:41.813Z,6.93
2022-09-13T07:37:10.390Z,6.50
2022-09-13T07:39:40.945Z,7.10
2022-09-13T07:42:11.258Z,5.90
2022-09-13T07:44:42.957Z,6.97
2022-09-13T07:47:17.341Z,7.03
2022-09-13T07:49:46.536Z,7.33
2022-09-13T07:52:18.508Z,7.50
2022-09-13T07:54:48.801Z,6.50
2022-09-13T07:57:19.821Z,6.23
2022-09-13T07:59:59.198Z,7.07
2022-09-13T08:02:27.808Z,7.50
2022-09-13T08:04:56.586Z,7.43
2022-09-13T08:07:25.320Z,6.87
2022-09-13T08:09:56.539Z,7.53
2022-09-13T08:12:26.553Z,7.87
2022-09-13T08:14:55.590Z,7.13
2022-09-13T08:17:25.375Z,7.60
2022-09-13T08:19:54.046Z,7.50
2022-09-13T08:22:26.071Z,7.67
2022-09-13T08:24:55.152Z,7.27
2022-09-13T08:27:23.832Z,7.50
2022-09-13T08:29:54.242Z,7.80
2022-09-13T08:32:25.062Z,8.17
2022-09-13T08:34:53.713Z,9.33
2022-09-13T08:37:25.799Z,8.33
2022-09-13T08:39:54.712Z,8.67
2022-09-13T08:42:36.833Z,8.67
2022-09-13T08:45:09.970Z,7.80
2022-09-13T08:47:45.263Z,10.00
2022-09-13T08:50:22.082Z,9.70
2022-09-13T08:53:01.035Z,11.00
2022-09-13T08:55:43.549Z,12.05
2022-09-13T08:58:32.622Z,12.25
2022-09-13T09:01:08.590Z,11.23
2022-09-13T09:03:50.443Z,10.38
2022-09-13T09:06:19.743Z,10.20
2022-09-13T09:08:55.664Z,10.10
2022-09-13T09:11:34.213Z,10.20
2022-09-13T09:14:17.505Z,10.35
2022-09-13T09:16:55.354Z,10.20
2022-09-13T09:19:34.548Z,9.90
2022-09-13T09:22:27.450Z,7.85
2022-09-13T09:25:17.098Z,9.45
2022-09-13T09:27:46.985Z,10.23
2022-09-13T09:30:19.923Z,9.27
2022-09-13T09:33:12.837Z,9.25
2022-09-13T09:35:54.652Z,9.77
2022-09-13T09:38:40.759Z,9.90
2022-09-13T09:41:18.452Z,10.55
2022-09-13T09:43:52.730Z,11.48
2022-09-13T09:46:28.142Z,11.43
2022-09-13T09:53:13.400Z,11.25
2022-09-13T09:55:47.821Z,10.45
2022-09-13T09:58:18.320Z,9.80
2022-09-13T10:00:54.966Z,9.02
2022-09-13T10:03:30.369Z,9.02
2022-09-13T10:06:08.696Z,10.38
2022-09-13T10:42:37.930Z,10.20
2022-09-13T10:45:11.119Z,9.23
2022-09-13T10:47:48.122Z,9.70
2022-09-13T10:50:25.501Z,9.27
2022-09-13T10:52:55.295Z,8.25
2022-09-13T10:55:36.644Z,9.20
2022-09-13T10:58:18.394Z,7.47
2022-09-13T11:01:17.169Z,9.13
2022-09-13T11:04:15.261Z,10.13
2022-09-13T11:06:51.852Z,9.45
2022-09-13T11:09:25.900Z,8.90
2022-09-13T11:12:06.135Z,8.55
2022-09-13T11:14:50.794Z,9.63
2022-09-13T11:17:34.822Z,8.77
2022-09-13T11:20:27.499Z,9.38
2022-09-13T11:23:20.263Z,8.57
2022-09-13T11:26:07.339Z,9.90
2022-09-13T11:28:46.519Z,7.72
2022-09-13T11:31:36.938Z,8.20
2022-09-13T11:34:29.274Z,8.88
2022-09-13T11:37:15.362Z,8.55
2022-09-13T11:39:51.115Z,9.60
2022-09-13T11:42:39.674Z,9.40
2022-09-13T11:45:29.488Z,9.50
2022-09-13T11:48:32.126Z,10.18
2022-09-13T11:51:12.151Z,7.35
2022-09-13T11:54:17.876Z,8.38
2022-09-13T11:56:55.041Z,8.18
2022-09-13T11:59:44.931Z,7.30
2022-09-13T12:02:26.501Z,6.10
2022-09-13T12:05:21.001Z,6.97
2022-09-13T12:08:02.134Z,6.00
2022-09-13T12:10:38.883Z,5.50
2022-09-13T12:13:19.865Z,5.15
2022-09-13T12:15:53.202Z,5.75
2022-09-13T12:18:27.944Z,5.53
2022-09-13T12:21:02.618Z,5.93
2022-09-13T12:23:38.248Z,4.75
2022-09-13T12:26:18.111Z,5.50
2022-09-13T12:28:57.536Z,4.90
2022-09-13T12:31:35.533Z,4.90
2022-09-13T12:34:23.335Z,5.18
2022-09-13T12:37:19.070Z,4.95
2022-09-13T12:40:28.467Z,4.63
2022-09-13T12:43:28.090Z,4.57
2022-09-13T12:46:20.565Z,4.30
2022-09-13T12:49:20.500Z,4.50
2022-09-13T12:52:11.618Z,4.68
2022-09-13T12:55:46.657Z,3.92
2022-09-13T12:58:33.730Z,3.97
2022-09-13T13:01:12.442Z,4.85
2022-09-13T13:04:01.784Z,5.03
2022-09-13T13:06:38.553Z,4.13
2022-09-13T13:09:29.163Z,4.00
2022-09-13T13:11:59.926Z,4.50
2022-09-13T13:14:56.425Z,5.63
2022-09-13T13:17:49.117Z,5.03
2022-09-13T13:20:49.459Z,4.80
2022-09-13T13:23:25.935Z,4.00
2022-09-13T13:26:14.466Z,3.53
2022-09-13T13:29:16.294Z,5.50
2022-09-13T13:32:14.929Z,5.82
2022-09-13T13:34:46.501Z,4.30
2022-09-13T13:37:38.912Z,5.78
2022-09-13T13:40:30.835Z,4.78
2022-09-13T13:43:34.321Z,5.00
2022-09-13T13:46:34.075Z,5.78
2022-09-13T13:49:55.947Z,5.13
2022-09-13T13:52:44.184Z,4.50
2022-09-13T13:55:49.600Z,5.82
2022-09-13T13:58:32.975Z,5.60
2022-09-13T14:01:08.398Z,5.85
2022-09-13T14:03:54.724Z,5.60
2022-09-13T14:06:42.727Z,6.10
2022-09-13T14:09:33.514Z,5.28
2022-09-13T14:12:21.080Z,5.20
2022-09-13T14:15:15.852Z,4.97
2022-09-13T14:18:28.868Z,5.82
2022-09-13T14:21:06.986Z,5.47
2022-09-13T14:23:37.537Z,6.00
2022-09-13T14:26:22.251Z,5.57
2022-09-13T14:29:03.776Z,4.90
2022-09-13T14:31:33.725Z,5.07
2022-09-13T14:34:09.582Z,5.55
2022-09-13T14:36:53.986Z,5.10
2022-09-13T14:39:32.147Z,5.60
2022-09-13T14:42:22.393Z,5.32
2022-09-13T14:45:08.905Z,5.78
2022-09-13T14:47:53.268Z,5.93
2022-09-13T14:50:30.447Z,5.90
2022-09-13T14:53:08.393Z,4.53
2022-09-13T14:55:42.704Z,5.15
2022-09-13T14:58:26.554Z,4.72
2022-09-13T15:01:00.139Z,5.43
2022-09-13T15:03:32.437Z,5.00
2022-09-13T15:06:05.888Z,4.75
2022-09-13T15:08:49.749Z,4.18
2022-09-13T15:11:32.078Z,4.45
2022-09-13T15:14:28.310Z,4.85
2022-09-13T15:17:15.826Z,4.80
2022-09-13T15:19:50.068Z,4.80
2022-09-13T15:22:33.202Z,4.18
2022-09-13T15:25:06.681Z,3.70
2022-09-13T15:27:50.651Z,3.35
2022-09-13T15:30:44.075Z,4.07
2022-09-13T15:33:32.380Z,4.53
2022-09-13T15:36:31.428Z,4.65
2022-09-13T15:39:09.742Z,4.35
2022-09-13T15:41:59.557Z,4.20
2022-09-13T15:44:33.229Z,4.00
2022-09-13T15:47:05.263Z,4.00
2022-09-13T15:49:38.711Z,4.07
2022-09-13T15:52:12.746Z,3.55
2022-09-13T15:54:47.454Z,5.50
2022-09-13T15:57:30.336Z,3.83
2022-09-13T16:00:06.407Z,4.30
2022-09-13T16:02:39.012Z,5.38
2022-09-13T16:05:14.810Z,4.63
2022-09-13T16:07:48.240Z,4.43
2022-09-13T16:10:22.785Z,5.32
2022-09-13T16:13:06.761Z,4.40
2022-09-13T16:15:39.830Z,4.78
2022-09-13T16:18:09.505Z,3.60
2022-09-13T16:20:41.751Z,4.40
2022-09-13T16:23:18.460Z,4.93
2022-09-13T16:25:49.395Z,4.38
2022-09-13T16:28:26.957Z,3.72
2022-09-13T16:30:57.988Z,4.30
2022-09-13T16:33:30.145Z,3.65
2022-09-13T16:36:04.505Z,4.13
2022-09-13T16:38:36.990Z,3.08
2022-09-13T16:41:10.075Z,2.97
2022-09-13T16:43:42.770Z,3.00
2022-09-13T16:46:25.050Z,3.13
2022-09-13T16:49:00.745Z,3.15
2022-09-13T16:51:30.926Z,2.80
2022-09-13T16:54:15.781Z,2.92
2022-09-13T16:57:10.845Z,3.05
2022-09-13T17:00:25.689Z,3.33
2022-09-13T17:03:17.305Z,3.67
2022-09-13T17:06:02.821Z,2.90
2022-09-13T17:08:43.803Z,2.67
2022-09-13T17:11:16.246Z,2.70
2022-09-13T17:13:53.983Z,2.65
2022-09-13T17:16:30.826Z,2.72
2022-09-13T17:19:15.873Z,2.67
2022-09-13T17:22:03.165Z,2.60
2022-09-13T17:24:33.936Z,3.03
2022-09-13T17:27:18.494Z,3.08
2022-09-13T17:29:52.203Z,3.33
2022-09-13T17:32:22.620Z,3.15
2022-09-13T17:34:53.714Z,3.05
2022-09-13T17:37:39.400Z,2.83
2022-09-13T17:40:19.189Z,2.95
2022-09-13T17:43:10.552Z,2.72
2022-09-13T17:45:43.475Z,4.45
2022-09-13T17:48:20.262Z,3.88
2022-09-13T17:51:20.845Z,4.18
2022-09-13T17:54:01.333Z,3.08
2022-09-13T17:56:38.581Z,2.80
2022-09-13T17:59:11.399Z,2.72
2022-09-13T18:01:51.476Z,2.80
2022-09-13T18:04:29.033Z,3.15
2022-09-13T18:07:08.882Z,3.20
2022-09-13T18:09:42.833Z,3.10
2022-09-13T18:12:24.674Z,3.17
2022-09-13T18:14:53.868Z,3.25
2022-09-13T18:17:33.118Z,3.13
2022-09-13T18:20:26.816Z,2.85
2022-09-13T18:23:19.591Z,2.15
2022-09-13T18:26:21.791Z,2.30
2022-09-13T18:29:03.464Z,2.70
2022-09-13T18:31:38.513Z,2.35
2022-09-13T18:34:27.743Z,1.90
2022-09-13T18:37:08.846Z,7.90
2022-09-13T18:39:50.528Z,4.40
2022-09-13T18:42:22.292Z,2.03
2022-09-13T18:44:56.689Z,1.80
2022-09-13T18:47:26.267Z,1.90
2022-09-13T18:50:01.815Z,1.97
2022-09-13T18:52:31.871Z,1.60
2022-09-13T18:55:10.230Z,1.57
2022-09-13T18:57:49.776Z,1.40
2022-09-13T19:00:29.055Z,1.30
2022-09-13T19:03:21.647Z,1.60
2022-09-13T19:05:54.092Z,1.40
2022-09-13T19:08:29.347Z,1.27
2022-09-13T19:11:29.113Z,1.23
2022-09-13T19:14:04.536Z,1.43
2022-09-13T19:16:40.808Z,1.02
2022-09-13T19:19:22.335Z,0.90
2022-09-13T19:24:45.100Z,1.10
2022-09-13T19:27:30.890Z,0.80
2022-09-13T19:30:01.316Z,1.20
2022-09-13T19:32:33.940Z,1.10
2022-09-13T19:35:07.786Z,0.80
2022-09-13T19:37:41.198Z,0.90
2022-09-13T19:40:28.278Z,0.50
2022-09-13T19:43:03.202Z,0.97
2022-09-13T19:45:37.715Z,1.20
2022-09-13T19:48:37.706Z,1.00
2022-09-13T19:51:24.797Z,1.00
2022-09-13T19:54:13.304Z,0.90
2022-09-13T19:57:00.896Z,0.67
2022-09-13T19:59:38.376Z,1.10
2022-09-13T20:02:26.820Z,0.80
2022-09-13T20:05:08.357Z,0.90
2022-09-13T20:07:44.505Z,0.80
2022-09-13T20:10:30.037Z,1.00
2022-09-13T20:13:01.183Z,0.90
2022-09-13T20:15:46.033Z,1.00
2022-09-13T20:18:28.827Z,0.80
2022-09-13T20:21:04.181Z,0.90
2022-09-13T20:23:38.070Z,0.93
2022-09-13T20:26:19.753Z,1.07
2022-09-13T20:28:59.991Z,1.60
2022-09-13T20:31:36.534Z,1.00
2022-09-13T20:34:23.954Z,1.20
2022-09-13T20:37:02.261Z,1.03
2022-09-13T20:39:36.804Z,1.13
2022-09-13T20:42:19.435Z,1.10
2022-09-13T20:44:49.432Z,0.80
2022-09-13T20:47:32.901Z,1.07
2022-09-13T20:50:05.760Z,1.00
2022-09-13T20:52:35.930Z,0.80
2022-09-13T20:55:28.392Z,0.83
2022-09-13T20:58:09.793Z,1.13
2022-09-13T21:00:53.604Z,1.07
2022-09-13T21:03:25.550Z,1.00
2022-09-13T21:05:54.994Z,0.90
2022-09-13T21:08:42.403Z,0.90
2022-09-13T21:11:24.585Z,0.70
2022-09-13T21:14:00.236Z,0.97
2022-09-13T21:16:34.712Z,0.93
2022-09-13T21:19:09.182Z,0.87
2022-09-13T21:21:45.822Z,1.10
2022-09-13T21:24:23.237Z,1.10
2022-09-13T21:26:58.403Z,1.20
2022-09-13T21:29:28.285Z,0.93
2022-09-13T21:32:09.266Z,0.90
2022-09-13T21:34:48.348Z,1.07
2022-09-13T21:37:20.800Z,0.90
2022-09-13T21:40:00.388Z,0.90
2022-09-13T21:42:29.710Z,0.83
2022-09-13T21:44:58.817Z,0.80
2022-09-13T21:47:31.674Z,1.00
2022-09-13T21:50:04.967Z,0.93
2022-09-13T21:52:35.870Z,1.67
2022-09-13T21:55:21.684Z,0.93
2022-09-13T21:57:53.730Z,0.90
2022-09-13T22:00:25.745Z,1.10
2022-09-13T22:02:54.984Z,1.13
2022-09-13T22:05:26.708Z,1.00
2022-09-13T22:08:07.008Z,1.00
2022-09-13T22:10:41.008Z,1.23
2022-09-13T22:13:12.985Z,0.87
2022-09-13T22:15:42.512Z,1.40
2022-09-13T22:18:13.739Z,1.20
2022-09-13T22:20:46.934Z,1.00
2022-09-13T22:23:17.740Z,1.03
2022-09-13T22:25:47.473Z,1.10
2022-09-13T22:28:18.972Z,1.07
2022-09-13T22:30:48.219Z,1.50
2022-09-13T22:33:17.044Z,1.07
2022-09-13T22:35:47.614Z,1.40
2022-09-13T22:38:16.693Z,1.10
2022-09-13T22:40:45.495Z,1.10
2022-09-13T22:43:14.411Z,1.50
2022-09-13T22:45:43.308Z,1.43
2022-09-13T22:48:12.621Z,1.37
2022-09-13T22:50:41.494Z,1.13
2022-09-13T22:53:12.474Z,1.20
2022-09-13T22:55:44.699Z,1.33
2022-09-13T22:58:17.508Z,1.17
2022-09-13T23:00:47.642Z,1.33
2022-09-13T23:03:17.287Z,1.03
2022-09-13T23:05:52.993Z,1.40
2022-09-13T23:08:26.084Z,0.70
2022-09-13T23:10:54.942Z,1.30
2022-09-13T23:13:24.129Z,1.20
2022-09-13T23:15:54.329Z,1.20
2022-09-13T23:18:23.092Z,1.23
2022-09-13T23:20:58.098Z,1.10
2022-09-13T23:23:28.500Z,1.23
2022-09-13T23:26:03.269Z,1.30
2022-09-13T23:28:32.327Z,1.43
2022-09-13T23:31:12.263Z,1.23
2022-09-13T23:33:44.563Z,1.63
2022-09-13T23:36:14.850Z,1.53
2022-09-13T23:38:48.841Z,1.30
2022-09-13T23:41:17.848Z,1.10
2022-09-13T23:43:46.912Z,1.13
2022-09-13T23:46:16.900Z,1.20
2022-09-13T23:48:46.050Z,1.47
2022-09-13T23:51:16.186Z,1.37
2022-09-13T23:53:47.494Z,1.17
2022-09-13T23:56:16.930Z,1.40
2022-09-13T23:58:45.825Z,1.07
